logo tempoitalia

Diretta Meteo Kununurra Kununurra Aws, Australialunedì 31 agosto ore 13:00

Mappa
Sereno 35 °C Sereno 24 Ore: T.min 16 T.max 37
Ponente Sud-Est Km/h 16.7 Punto di rugiada: 9 °C Umidità: 20% Visibilità: 10 Km
Il sole sorge alle: 05:31 Il sole tramonta alle: 17:19
31 Agosto 2026 13:00 tempo osservato: Sereno Sereno 35 20 1016 vento: Nord SE 16.7
31 Agosto 2026 12:30 tempo osservato: Sereno Sereno 34 21 1016 vento: Nord E 16.7
31 Agosto 2026 12:00 tempo osservato: Sereno Sereno 34 21 1017 vento: Nord E 13
31 Agosto 2026 11:30 tempo osservato: Sereno Sereno 34 23 1017 vento: Nord E/SE 14.8
31 Agosto 2026 11:00 tempo osservato: Sereno Sereno 33 22 1018 vento: Nord E 11.1
31 Agosto 2026 10:30 tempo osservato: Sereno Sereno 33 22 1019 vento: Nord SE 11.1
31 Agosto 2026 10:00 tempo osservato: Sereno Sereno 33 22 1019 vento: Nord E/NE 13
31 Agosto 2026 09:30 tempo osservato: Sereno Sereno 31 23 1020 vento: Nord E/SE 13
31 Agosto 2026 09:00 tempo osservato: Sereno Sereno 30 25 1020 vento: Nord E 16.7
31 Agosto 2026 08:30 tempo osservato: Sereno Sereno 30 23 1020 vento: Nord E 20.3
31 Agosto 2026 08:00 tempo osservato: Sereno Sereno 29 25 1020 vento: Nord SE 18.5
31 Agosto 2026 07:30 tempo osservato: Sereno Sereno 28 34 1019 vento: Nord S 9.3
31 Agosto 2026 07:00 tempo osservato: Sereno Sereno 25 44 1019 vento: Nord S 7.4
31 Agosto 2026 06:30 tempo osservato: Sereno Sereno 21 77 1019 vento: Nord N 0
31 Agosto 2026 06:00 tempo osservato: Sereno Sereno 17 77 1018 vento: Nord N 0
31 Agosto 2026 05:30 tempo osservato: Sereno Sereno 16 82 1018 vento: Nord N 0
31 Agosto 2026 05:00 tempo osservato: Sereno Sereno 16 82 1018 vento: Nord N 0
31 Agosto 2026 04:30 tempo osservato: Sereno Sereno 16 82 1017 vento: Nord N 0
31 Agosto 2026 04:00 tempo osservato: Sereno Sereno 17 82 1017 vento: Nord N 1.8
31 Agosto 2026 03:30 tempo osservato: Sereno Sereno 17 82 1017 vento: Nord N 0
31 Agosto 2026 03:00 tempo osservato: Sereno Sereno 18 72 1017 vento: Nord N 5.5
31 Agosto 2026 02:30 tempo osservato: Sereno Sereno 18 77 1017 vento: Nord N 5.5
31 Agosto 2026 02:00 tempo osservato: Sereno Sereno 19 72 1017 vento: Nord N 0
31 Agosto 2026 01:30 tempo osservato: Sereno Sereno 19 72 1017 vento: Nord SO 7.4
31 Agosto 2026 01:00 tempo osservato: Sereno Sereno 20 68 1017 vento: Nord N 3.7
31 Agosto 2026 00:30 tempo osservato: Poco Nuvoloso Poco Nuvoloso 20 77 1017 vento: Nord N 5.5
31 Agosto 2026 00:00 tempo osservato: Nuvoloso Nuvoloso 20 64 1017 vento: Nord N 5.5
30 Agosto 2026 23:30 tempo osservato: Nuvoloso Nuvoloso 21 60 1017 vento: Nord N 0
30 Agosto 2026 23:00 tempo osservato: Molto Nuvoloso Molto Nuvoloso 22 56 1017 vento: Nord N 0
30 Agosto 2026 22:30 tempo osservato: Molto Nuvoloso Molto Nuvoloso 22 60 1017 vento: Nord N 0
30 Agosto 2026 22:00 tempo osservato: Sereno Sereno 23 53 1017 vento: Nord N 5.5
30 Agosto 2026 21:30 tempo osservato: Sereno Sereno 23 53 1017 vento: Nord N 5.5
30 Agosto 2026 21:00 tempo osservato: Sereno Sereno 24 50 1017 vento: Nord N/NE 13
30 Agosto 2026 20:30 tempo osservato: Sereno Sereno 24 50 1017 vento: Nord N/NE 9.3
30 Agosto 2026 20:00 tempo osservato: Sereno Sereno 27 39 1016 vento: Nord N/NO 13
30 Agosto 2026 19:30 tempo osservato: Sereno Sereno 28 37 1016 vento: Nord N 18.5
30 Agosto 2026 19:00 tempo osservato: Sereno Sereno 27 39 1015 vento: Nord E/SE 11.1
30 Agosto 2026 18:30 tempo osservato: Sereno Sereno 27 36 1015 vento: Nord E/SE 11.1
30 Agosto 2026 18:00 tempo osservato: Sereno Sereno 28 34 1014 vento: Nord E/SE 9.3
30 Agosto 2026 17:30 tempo osservato: Sereno Sereno 31 27 1014 vento: Nord E/SE 9.3
30 Agosto 2026 17:00 tempo osservato: Sereno Sereno 33 24 1014 vento: Nord E 11.1
30 Agosto 2026 16:30 tempo osservato: Sereno Sereno 34 20 1013 vento: Nord E/SE 11.1
30 Agosto 2026 16:00 tempo osservato: Sereno Sereno 35 19 1013 vento: Nord S/SE 11.1
30 Agosto 2026 15:30 tempo osservato: Sereno Sereno 35 17 1013 vento: Nord E/SE 11.1
30 Agosto 2026 15:00 tempo osservato: Sereno Sereno 36 18 1013 vento: Nord E 16.7
30 Agosto 2026 14:30 tempo osservato: Sereno Sereno 36 18 1013 vento: Nord E/SE 16.7
30 Agosto 2026 14:00 tempo osservato: Sereno Sereno 37 17 1013 vento: Nord E 20.3